sensor_id;sensor_type;location;lat;lon;timestamp;pressure;altitude;pressure_sealevel;temperature;humidity
75538;BME280;64121;48.666;8.114;2023-04-15T00:01:31;99073.34;;;3.62;85.35
75538;BME280;64121;48.666;8.114;2023-04-15T00:03:56;99076.56;;;3.73;84.41
75538;BME280;64121;48.666;8.114;2023-04-15T00:06:22;99068.97;;;3.61;85.17
75538;BME280;64121;48.666;8.114;2023-04-15T00:08:48;99073.50;;;3.57;85.15
75538;BME280;64121;48.666;8.114;2023-04-15T00:11:15;99079.16;;;3.52;84.70
75538;BME280;64121;48.666;8.114;2023-04-15T00:13:41;99076.75;;;3.42;84.79
75538;BME280;64121;48.666;8.114;2023-04-15T00:16:07;99072.06;;;3.42;83.79
75538;BME280;64121;48.666;8.114;2023-04-15T00:18:33;99074.47;;;3.52;83.71
75538;BME280;64121;48.666;8.114;2023-04-15T00:20:58;99073.50;;;3.48;83.25
75538;BME280;64121;48.666;8.114;2023-04-15T00:23:24;99083.84;;;3.51;83.16
75538;BME280;64121;48.666;8.114;2023-04-15T00:25:49;99082.91;;;3.56;83.40
75538;BME280;64121;48.666;8.114;2023-04-15T00:28:16;99093.41;;;3.45;83.79
75538;BME280;64121;48.666;8.114;2023-04-15T00:30:41;99082.72;;;3.44;83.48
75538;BME280;64121;48.666;8.114;2023-04-15T00:33:07;99080.94;;;3.48;83.77
75538;BME280;64121;48.666;8.114;2023-04-15T00:35:32;99083.03;;;3.51;82.78
75538;BME280;64121;48.666;8.114;2023-04-15T00:37:57;99087.59;;;3.55;83.14
75538;BME280;64121;48.666;8.114;2023-04-15T00:40:23;99083.53;;;3.53;84.18
75538;BME280;64121;48.666;8.114;2023-04-15T00:42:48;99076.56;;;3.47;84.07
75538;BME280;64121;48.666;8.114;2023-04-15T00:45:15;99076.25;;;3.40;84.95
75538;BME280;64121;48.666;8.114;2023-04-15T00:47:42;99083.56;;;3.36;83.74
75538;BME280;64121;48.666;8.114;2023-04-15T00:50:08;99077.88;;;3.23;85.80
75538;BME280;64121;48.666;8.114;2023-04-15T00:52:34;99076.25;;;3.22;84.90
75538;BME280;64121;48.666;8.114;2023-04-15T00:54:59;99079.00;;;3.22;84.78
75538;BME280;64121;48.666;8.114;2023-04-15T00:57:25;99077.88;;;3.23;84.62
75538;BME280;64121;48.666;8.114;2023-04-15T00:59:53;99080.31;;;3.16;84.64
75538;BME280;64121;48.666;8.114;2023-04-15T01:02:21;99074.81;;;3.16;85.72
75538;BME280;64121;48.666;8.114;2023-04-15T01:04:46;99069.13;;;3.04;85.70
75538;BME280;64121;48.666;8.114;2023-04-15T01:07:12;99080.44;;;3.02;86.61
75538;BME280;64121;48.666;8.114;2023-04-15T01:09:37;99083.84;;;2.99;86.16
75538;BME280;64121;48.666;8.114;2023-04-15T01:12:03;99072.84;;;2.99;84.65
75538;BME280;64121;48.666;8.114;2023-04-15T01:14:30;99078.16;;;2.96;86.93
75538;BME280;64121;48.666;8.114;2023-04-15T01:16:55;99071.53;;;2.88;85.89
75538;BME280;64121;48.666;8.114;2023-04-15T01:19:22;99069.59;;;2.89;85.19
75538;BME280;64121;48.666;8.114;2023-04-15T01:21:48;99069.41;;;2.94;85.46
75538;BME280;64121;48.666;8.114;2023-04-15T01:24:17;99073.47;;;2.96;85.65
75538;BME280;64121;48.666;8.114;2023-04-15T01:26:44;99070.88;;;2.83;87.55
75538;BME280;64121;48.666;8.114;2023-04-15T01:29:09;99064.91;;;2.81;86.55
75538;BME280;64121;48.666;8.114;2023-04-15T01:31:35;99068.56;;;2.67;88.66
75538;BME280;64121;48.666;8.114;2023-04-15T01:34:00;99066.47;;;2.64;87.62
75538;BME280;64121;48.666;8.114;2023-04-15T01:36:26;99070.03;;;2.73;87.13
75538;BME280;64121;48.666;8.114;2023-04-15T01:38:51;99071.81;;;2.78;87.31
75538;BME280;64121;48.666;8.114;2023-04-15T01:41:20;99064.22;;;2.75;87.72
75538;BME280;64121;48.666;8.114;2023-04-15T01:43:47;99065.97;;;2.71;87.75
75538;BME280;64121;48.666;8.114;2023-04-15T01:46:12;99063.41;;;2.66;87.08
75538;BME280;64121;48.666;8.114;2023-04-15T01:48:38;99058.53;;;2.63;88.21
75538;BME280;64121;48.666;8.114;2023-04-15T01:51:03;99060.59;;;2.49;88.60
75538;BME280;64121;48.666;8.114;2023-04-15T01:53:29;99066.09;;;2.49;87.50
75538;BME280;64121;48.666;8.114;2023-04-15T01:55:54;99063.03;;;2.59;87.05
75538;BME280;64121;48.666;8.114;2023-04-15T01:58:19;99068.50;;;2.50;88.94
75538;BME280;64121;48.666;8.114;2023-04-15T02:00:46;99059.75;;;2.39;88.64
75538;BME280;64121;48.666;8.114;2023-04-15T02:03:11;99064.63;;;2.42;87.92
75538;BME280;64121;48.666;8.114;2023-04-15T02:05:37;99055.44;;;2.47;88.70
75538;BME280;64121;48.666;8.114;2023-04-15T02:08:02;99062.69;;;2.43;88.06
75538;BME280;64121;48.666;8.114;2023-04-15T02:10:27;99062.16;;;2.41;88.33
75538;BME280;64121;48.666;8.114;2023-04-15T02:12:53;99067.31;;;2.34;88.70
75538;BME280;64121;48.666;8.114;2023-04-15T02:15:18;99067.97;;;2.39;87.46
75538;BME280;64121;48.666;8.114;2023-04-15T02:17:45;99061.06;;;2.42;88.19
75538;BME280;64121;48.666;8.114;2023-04-15T02:20:11;99066.84;;;2.40;87.47
75538;BME280;64121;48.666;8.114;2023-04-15T02:22:36;99064.63;;;2.51;87.83
75538;BME280;64121;48.666;8.114;2023-04-15T02:25:01;99061.91;;;2.51;87.79
75538;BME280;64121;48.666;8.114;2023-04-15T02:27:27;99059.16;;;2.51;87.96
75538;BME280;64121;48.666;8.114;2023-04-15T02:29:52;99066.50;;;2.33;88.33
75538;BME280;64121;48.666;8.114;2023-04-15T02:32:17;99061.59;;;2.22;88.46
75538;BME280;64121;48.666;8.114;2023-04-15T02:34:44;99072.88;;;2.11;89.39
75538;BME280;64121;48.666;8.114;2023-04-15T02:37:11;99072.00;;;2.02;88.94
75538;BME280;64121;48.666;8.114;2023-04-15T02:39:37;99074.16;;;2.05;89.15
75538;BME280;64121;48.666;8.114;2023-04-15T02:42:02;99070.88;;;2.03;89.81
75538;BME280;64121;48.666;8.114;2023-04-15T02:44:28;99059.78;;;2.08;88.52
75538;BME280;64121;48.666;8.114;2023-04-15T02:46:53;99066.13;;;2.18;88.70
75538;BME280;64121;48.666;8.114;2023-04-15T02:49:19;99070.63;;;2.13;88.70
75538;BME280;64121;48.666;8.114;2023-04-15T02:51:46;99069.66;;;2.18;88.24
75538;BME280;64121;48.666;8.114;2023-04-15T02:54:11;99071.47;;;2.23;88.26
75538;BME280;64121;48.666;8.114;2023-04-15T02:56:36;99073.28;;;2.27;88.72
75538;BME280;64121;48.666;8.114;2023-04-15T02:59:02;99082.56;;;2.18;88.88
75538;BME280;64121;48.666;8.114;2023-04-15T03:01:27;99077.91;;;2.18;88.58
75538;BME280;64121;48.666;8.114;2023-04-15T03:03:52;99077.22;;;2.12;89.16
75538;BME280;64121;48.666;8.114;2023-04-15T03:06:18;99075.75;;;2.06;89.26
75538;BME280;64121;48.666;8.114;2023-04-15T03:08:45;99066.66;;;1.97;89.95
75538;BME280;64121;48.666;8.114;2023-04-15T03:11:10;99078.91;;;1.91;89.99
75538;BME280;64121;48.666;8.114;2023-04-15T03:13:35;99080.50;;;1.92;89.27
75538;BME280;64121;48.666;8.114;2023-04-15T03:16:01;99080.56;;;2.01;90.25
75538;BME280;64121;48.666;8.114;2023-04-15T03:18:26;99078.41;;;1.89;90.41
75538;BME280;64121;48.666;8.114;2023-04-15T03:20:51;99081.41;;;1.79;90.67
75538;BME280;64121;48.666;8.114;2023-04-15T03:23:17;99083.16;;;1.75;91.00
75538;BME280;64121;48.666;8.114;2023-04-15T03:25:44;99082.16;;;1.71;92.22
75538;BME280;64121;48.666;8.114;2023-04-15T03:28:10;99068.88;;;1.64;91.32
75538;BME280;64121;48.666;8.114;2023-04-15T03:30:35;99081.84;;;1.72;91.45
75538;BME280;64121;48.666;8.114;2023-04-15T03:33:01;99068.78;;;1.69;91.85
75538;BME280;64121;48.666;8.114;2023-04-15T03:35:26;99066.19;;;1.73;91.15
75538;BME280;64121;48.666;8.114;2023-04-15T03:37:51;99067.69;;;1.79;90.79
75538;BME280;64121;48.666;8.114;2023-04-15T03:40:17;99069.78;;;1.82;89.87
75538;BME280;64121;48.666;8.114;2023-04-15T03:42:43;99073.09;;;1.93;90.04
75538;BME280;64121;48.666;8.114;2023-04-15T03:45:10;99079.38;;;1.93;90.09
75538;BME280;64121;48.666;8.114;2023-04-15T03:47:35;99078.44;;;1.98;90.91
75538;BME280;64121;48.666;8.114;2023-04-15T03:50:00;99081.81;;;1.95;90.39
75538;BME280;64121;48.666;8.114;2023-04-15T03:52:26;99085.03;;;1.88;91.67
75538;BME280;64121;48.666;8.114;2023-04-15T03:54:51;99077.38;;;1.85;91.39
75538;BME280;64121;48.666;8.114;2023-04-15T03:57:16;99082.69;;;1.81;91.14
75538;BME280;64121;48.666;8.114;2023-04-15T03:59:43;99083.31;;;1.78;89.70
75538;BME280;64121;48.666;8.114;2023-04-15T04:02:08;99080.13;;;1.85;89.01
75538;BME280;64121;48.666;8.114;2023-04-15T04:04:34;99075.91;;;1.79;90.01
75538;BME280;64121;48.666;8.114;2023-04-15T04:06:59;99079.41;;;1.71;90.15
75538;BME280;64121;48.666;8.114;2023-04-15T04:09:24;99082.25;;;1.66;89.64
75538;BME280;64121;48.666;8.114;2023-04-15T04:11:50;99087.34;;;1.72;90.18
75538;BME280;64121;48.666;8.114;2023-04-15T04:14:15;99092.19;;;1.75;89.91
75538;BME280;64121;48.666;8.114;2023-04-15T04:16:42;99085.91;;;1.75;90.10
75538;BME280;64121;48.666;8.114;2023-04-15T04:19:07;99085.53;;;1.68;90.75
75538;BME280;64121;48.666;8.114;2023-04-15T04:21:33;99091.81;;;1.68;90.19
75538;BME280;64121;48.666;8.114;2023-04-15T04:23:58;99086.34;;;1.68;90.79
75538;BME280;64121;48.666;8.114;2023-04-15T04:26:23;99097.84;;;1.57;92.04
75538;BME280;64121;48.666;8.114;2023-04-15T04:28:49;99093.63;;;1.50;91.35
75538;BME280;64121;48.666;8.114;2023-04-15T04:31:14;99093.63;;;1.50;90.15
75538;BME280;64121;48.666;8.114;2023-04-15T04:33:41;99100.91;;;1.55;91.67
75538;BME280;64121;48.666;8.114;2023-04-15T04:36:06;99099.53;;;1.44;91.50
75538;BME280;64121;48.666;8.114;2023-04-15T04:38:32;99105.94;;;1.39;92.83
75538;BME280;64121;48.666;8.114;2023-04-15T04:40:57;99097.09;;;1.42;91.87
75538;BME280;64121;48.666;8.114;2023-04-15T04:43:22;99097.59;;;1.44;92.19
75538;BME280;64121;48.666;8.114;2023-04-15T04:45:48;99099.22;;;1.45;91.65
75538;BME280;64121;48.666;8.114;2023-04-15T04:48:13;99103.03;;;1.58;91.20
75538;BME280;64121;48.666;8.114;2023-04-15T04:50:40;99096.19;;;1.69;91.48
75538;BME280;64121;48.666;8.114;2023-04-15T04:53:05;99095.75;;;1.76;90.14
75538;BME280;64121;48.666;8.114;2023-04-15T04:55:31;99107.19;;;1.78;90.35
75538;BME280;64121;48.666;8.114;2023-04-15T04:57:56;99091.88;;;1.77;91.21
75538;BME280;64121;48.666;8.114;2023-04-15T05:00:21;99097.22;;;1.82;91.32
75538;BME280;64121;48.666;8.114;2023-04-15T05:02:47;99082.53;;;1.78;91.78
75538;BME280;64121;48.666;8.114;2023-04-15T05:05:12;99100.09;;;1.77;91.34
75538;BME280;64121;48.666;8.114;2023-04-15T05:07:39;99100.66;;;1.88;90.92
75538;BME280;64121;48.666;8.114;2023-04-15T05:10:05;99105.88;;;1.98;90.94
75538;BME280;64121;48.666;8.114;2023-04-15T05:12:31;99112.72;;;2.09;90.15
75538;BME280;64121;48.666;8.114;2023-04-15T05:14:56;99110.78;;;2.09;89.80
75538;BME280;64121;48.666;8.114;2023-04-15T05:17:21;99112.41;;;2.10;91.15
75538;BME280;64121;48.666;8.114;2023-04-15T05:19:47;99109.88;;;2.23;89.58
75538;BME280;64121;48.666;8.114;2023-04-15T05:22:12;99105.09;;;2.37;90.73
75538;BME280;64121;48.666;8.114;2023-04-15T05:24:39;99115.34;;;2.45;89.22
75538;BME280;64121;48.666;8.114;2023-04-15T05:27:04;99112.16;;;2.60;88.99
75538;BME280;64121;48.666;8.114;2023-04-15T05:29:30;99123.03;;;2.74;88.21
75538;BME280;64121;48.666;8.114;2023-04-15T05:31:55;99126.78;;;2.87;87.99
75538;BME280;64121;48.666;8.114;2023-04-15T05:34:20;99129.22;;;2.97;88.25
75538;BME280;64121;48.666;8.114;2023-04-15T05:36:46;99124.09;;;3.13;88.34
75538;BME280;64121;48.666;8.114;2023-04-15T05:39:11;99121.69;;;3.28;88.39
75538;BME280;64121;48.666;8.114;2023-04-15T05:41:38;99126.41;;;3.45;87.54
75538;BME280;64121;48.666;8.114;2023-04-15T05:44:03;99123.97;;;3.70;86.44
75538;BME280;64121;48.666;8.114;2023-04-15T05:46:29;99124.31;;;3.77;87.48
75538;BME280;64121;48.666;8.114;2023-04-15T05:48:54;99123.63;;;3.97;87.02
75538;BME280;64121;48.666;8.114;2023-04-15T05:51:20;99121.84;;;4.01;86.64
75538;BME280;64121;48.666;8.114;2023-04-15T05:53:45;99121.84;;;4.01;86.14
75538;BME280;64121;48.666;8.114;2023-04-15T05:56:10;99122.66;;;4.10;85.16
75538;BME280;64121;48.666;8.114;2023-04-15T05:58:37;99124.84;;;4.25;85.85
75538;BME280;64121;48.666;8.114;2023-04-15T06:01:02;99125.94;;;4.42;84.55
75538;BME280;64121;48.666;8.114;2023-04-15T06:03:28;99128.81;;;4.54;83.93
75538;BME280;64121;48.666;8.114;2023-04-15T06:05:53;99126.47;;;4.73;84.47
75538;BME280;64121;48.666;8.114;2023-04-15T06:08:18;99131.13;;;4.81;85.09
75538;BME280;64121;48.666;8.114;2023-04-15T06:10:44;99129.91;;;5.00;83.60
75538;BME280;64121;48.666;8.114;2023-04-15T06:13:09;99126.25;;;5.16;83.11
75538;BME280;64121;48.666;8.114;2023-04-15T06:15:36;99130.91;;;5.45;81.56
75538;BME280;64121;48.666;8.114;2023-04-15T06:18:01;99126.00;;;5.72;79.12
75538;BME280;64121;48.666;8.114;2023-04-15T06:20:27;99133.81;;;5.91;77.53
75538;BME280;64121;48.666;8.114;2023-04-15T06:22:52;99129.63;;;6.05;77.89
75538;BME280;64121;48.666;8.114;2023-04-15T06:25:18;99135.88;;;6.15;76.98
75538;BME280;64121;48.666;8.114;2023-04-15T06:27:43;99132.81;;;6.28;75.76
75538;BME280;64121;48.666;8.114;2023-04-15T06:30:09;99134.16;;;6.55;75.53
75538;BME280;64121;48.666;8.114;2023-04-15T06:32:36;99125.63;;;6.60;74.86
75538;BME280;64121;48.666;8.114;2023-04-15T06:35:01;99129.09;;;6.70;74.90
75538;BME280;64121;48.666;8.114;2023-04-15T06:37:27;99126.44;;;6.85;74.49
75538;BME280;64121;48.666;8.114;2023-04-15T06:39:52;99128.63;;;6.80;74.48
75538;BME280;64121;48.666;8.114;2023-04-15T06:42:17;99127.63;;;7.09;73.13
75538;BME280;64121;48.666;8.114;2023-04-15T06:44:43;99133.00;;;7.05;73.79
75538;BME280;64121;48.666;8.114;2023-04-15T06:47:08;99134.06;;;7.13;73.25
75538;BME280;64121;48.666;8.114;2023-04-15T06:49:35;99131.84;;;7.18;74.18
75538;BME280;64121;48.666;8.114;2023-04-15T06:52:00;99136.59;;;7.18;74.32
75538;BME280;64121;48.666;8.114;2023-04-15T06:54:26;99127.69;;;7.24;74.02
75538;BME280;64121;48.666;8.114;2023-04-15T06:56:51;99129.19;;;7.46;73.55
75538;BME280;64121;48.666;8.114;2023-04-15T06:59:17;99133.13;;;7.33;73.21
75538;BME280;64121;48.666;8.114;2023-04-15T07:01:42;99131.97;;;7.34;73.59
75538;BME280;64121;48.666;8.114;2023-04-15T07:04:08;99125.97;;;7.44;73.79
75538;BME280;64121;48.666;8.114;2023-04-15T07:06:34;99138.84;;;7.65;73.28
75538;BME280;64121;48.666;8.114;2023-04-15T07:09:00;99132.59;;;7.68;73.86
75538;BME280;64121;48.666;8.114;2023-04-15T07:11:26;99128.72;;;7.84;72.10
75538;BME280;64121;48.666;8.114;2023-04-15T07:13:51;99136.44;;;7.91;70.45
75538;BME280;64121;48.666;8.114;2023-04-15T07:16:17;99125.22;;;8.00;71.59
75538;BME280;64121;48.666;8.114;2023-04-15T07:18:42;99132.56;;;8.08;71.48
75538;BME280;64121;48.666;8.114;2023-04-15T07:21:07;99129.34;;;8.49;70.25
75538;BME280;64121;48.666;8.114;2023-04-15T07:23:34;99132.97;;;8.66;69.88
75538;BME280;64121;48.666;8.114;2023-04-15T07:25:59;99131.97;;;8.90;68.70
75538;BME280;64121;48.666;8.114;2023-04-15T07:28:25;99133.25;;;8.76;68.58
75538;BME280;64121;48.666;8.114;2023-04-15T07:30:50;99131.00;;;8.98;67.74
75538;BME280;64121;48.666;8.114;2023-04-15T07:33:15;99135.91;;;9.04;67.02
75538;BME280;64121;48.666;8.114;2023-04-15T07:35:41;99136.03;;;9.27;66.12
75538;BME280;64121;48.666;8.114;2023-04-15T07:38:06;99141.66;;;9.12;66.32
75538;BME280;64121;48.666;8.114;2023-04-15T07:40:33;99144.63;;;9.73;63.54
75538;BME280;64121;48.666;8.114;2023-04-15T07:42:58;99141.59;;;9.27;65.19
75538;BME280;64121;48.666;8.114;2023-04-15T07:45:24;99142.56;;;9.51;64.81
75538;BME280;64121;48.666;8.114;2023-04-15T07:47:49;99147.44;;;10.12;62.95
75538;BME280;64121;48.666;8.114;2023-04-15T07:50:15;99146.88;;;10.64;62.32
75538;BME280;64121;48.666;8.114;2023-04-15T07:52:40;99143.53;;;10.55;60.57
75538;BME280;64121;48.666;8.114;2023-04-15T07:55:06;99138.84;;;11.05;59.23
75538;BME280;64121;48.666;8.114;2023-04-15T07:57:33;99140.03;;;10.81;62.77
75538;BME280;64121;48.666;8.114;2023-04-15T07:59:59;99138.91;;;10.63;62.21
75538;BME280;64121;48.666;8.114;2023-04-15T08:02:25;99145.75;;;11.14;60.60
75538;BME280;64121;48.666;8.114;2023-04-15T08:04:50;99148.09;;;11.35;60.07
75538;BME280;64121;48.666;8.114;2023-04-15T08:07:15;99145.41;;;11.42;58.56
75538;BME280;64121;48.666;8.114;2023-04-15T08:09:41;99154.66;;;11.50;59.00
75538;BME280;64121;48.666;8.114;2023-04-15T08:12:06;99147.09;;;11.50;59.36
75538;BME280;64121;48.666;8.114;2023-04-15T08:14:34;99143.59;;;11.80;57.69
75538;BME280;64121;48.666;8.114;2023-04-15T08:16:59;99160.81;;;11.89;57.13
75538;BME280;64121;48.666;8.114;2023-04-15T08:19:24;99150.16;;;11.42;59.09
75538;BME280;64121;48.666;8.114;2023-04-15T08:21:50;99165.44;;;12.08;58.40
75538;BME280;64121;48.666;8.114;2023-04-15T08:24:15;99155.91;;;12.09;58.19
75538;BME280;64121;48.666;8.114;2023-04-15T08:26:41;99164.44;;;12.23;57.48
75538;BME280;64121;48.666;8.114;2023-04-15T08:29:06;99163.50;;;11.82;58.59
75538;BME280;64121;48.666;8.114;2023-04-15T08:31:33;99170.53;;;12.32;58.24
75538;BME280;64121;48.666;8.114;2023-04-15T08:33:58;99165.09;;;12.09;57.46
75538;BME280;64121;48.666;8.114;2023-04-15T08:36:23;99170.53;;;12.32;58.26
75538;BME280;64121;48.666;8.114;2023-04-15T08:38:49;99176.06;;;13.03;56.92
75538;BME280;64121;48.666;8.114;2023-04-15T08:41:20;99182.53;;;13.14;54.84
75538;BME280;64121;48.666;8.114;2023-04-15T08:43:50;99179.41;;;12.79;54.10
75538;BME280;64121;48.666;8.114;2023-04-15T08:46:16;99183.41;;;13.18;54.25
75538;BME280;64121;48.666;8.114;2023-04-15T08:48:45;99187.59;;;12.61;53.23
75538;BME280;64121;48.666;8.114;2023-04-15T08:51:11;99181.81;;;12.80;53.67
75538;BME280;64121;48.666;8.114;2023-04-15T08:53:37;99182.81;;;13.39;53.41
75538;BME280;64121;48.666;8.114;2023-04-15T08:56:04;99182.16;;;13.16;54.38
75538;BME280;64121;48.666;8.114;2023-04-15T08:58:32;99183.66;;;13.02;53.21
75538;BME280;64121;48.666;8.114;2023-04-15T09:00:57;99186.25;;;13.22;52.00
75538;BME280;64121;48.666;8.114;2023-04-15T09:03:23;99186.84;;;13.45;52.00
75538;BME280;64121;48.666;8.114;2023-04-15T09:05:49;99180.13;;;13.13;54.26
75538;BME280;64121;48.666;8.114;2023-04-15T09:08:15;99176.19;;;12.77;54.94
75538;BME280;64121;48.666;8.114;2023-04-15T09:10:40;99186.50;;;13.10;52.94
75538;BME280;64121;48.666;8.114;2023-04-15T09:13:06;99182.72;;;13.32;54.80
75538;BME280;64121;48.666;8.114;2023-04-15T09:15:31;99195.91;;;13.31;52.06
75538;BME280;64121;48.666;8.114;2023-04-15T09:17:57;99195.22;;;14.07;50.44
75538;BME280;64121;48.666;8.114;2023-04-15T09:20:22;99197.50;;;13.91;49.58
75538;BME280;64121;48.666;8.114;2023-04-15T09:22:49;99202.31;;;13.94;48.12
75538;BME280;64121;48.666;8.114;2023-04-15T09:25:26;99205.47;;;13.85;48.55
75538;BME280;64121;48.666;8.114;2023-04-15T09:27:53;99199.19;;;14.06;48.28
75538;BME280;64121;48.666;8.114;2023-04-15T09:30:18;99213.56;;;14.92;47.85
75538;BME280;64121;48.666;8.114;2023-04-15T09:32:48;99212.75;;;14.88;46.33
75538;BME280;64121;48.666;8.114;2023-04-15T09:35:14;99215.97;;;15.04;45.70
75538;BME280;64121;48.666;8.114;2023-04-15T09:37:40;99212.75;;;14.88;45.18
75538;BME280;64121;48.666;8.114;2023-04-15T09:40:07;99211.63;;;15.31;44.67
75538;BME280;64121;48.666;8.114;2023-04-15T09:42:33;99213.22;;;15.32;43.89
75538;BME280;64121;48.666;8.114;2023-04-15T09:45:07;99203.88;;;14.64;46.14
75538;BME280;64121;48.666;8.114;2023-04-15T09:47:32;99217.09;;;14.67;47.05
75538;BME280;64121;48.666;8.114;2023-04-15T09:49:59;99217.19;;;16.06;44.46
75538;BME280;64121;48.666;8.114;2023-04-15T09:52:25;99224.06;;;15.62;44.00
75538;BME280;64121;48.666;8.114;2023-04-15T09:54:52;99216.00;;;16.03;45.42
75538;BME280;64121;48.666;8.114;2023-04-15T09:57:19;99214.88;;;16.88;42.71
75538;BME280;64121;48.666;8.114;2023-04-15T09:59:44;99216.41;;;15.91;44.44
75538;BME280;64121;48.666;8.114;2023-04-15T10:02:11;99220.00;;;15.95;45.04
75538;BME280;64121;48.666;8.114;2023-04-15T10:04:39;99217.38;;;16.69;44.50
75538;BME280;64121;48.666;8.114;2023-04-15T10:07:06;99224.03;;;15.80;45.49
75538;BME280;64121;48.666;8.114;2023-04-15T10:09:34;99216.03;;;15.86;45.82
75538;BME280;64121;48.666;8.114;2023-04-15T10:12:00;99212.28;;;16.35;45.19
75538;BME280;64121;48.666;8.114;2023-04-15T10:14:32;99229.09;;;16.46;43.38
75538;BME280;64121;48.666;8.114;2023-04-15T10:16:59;99229.03;;;16.67;44.24
75538;BME280;64121;48.666;8.114;2023-04-15T10:19:26;99228.25;;;16.52;43.67
75538;BME280;64121;48.666;8.114;2023-04-15T10:21:52;99223.47;;;16.46;42.63
75538;BME280;64121;48.666;8.114;2023-04-15T10:24:18;99222.44;;;15.79;44.04
75538;BME280;64121;48.666;8.114;2023-04-15T10:26:44;99224.78;;;15.02;46.17
75538;BME280;64121;48.666;8.114;2023-04-15T10:29:09;99223.63;;;15.39;44.99
75538;BME280;64121;48.666;8.114;2023-04-15T10:31:37;99228.81;;;15.23;44.17
75538;BME280;64121;48.666;8.114;2023-04-15T10:34:04;99226.41;;;15.07;45.80
75538;BME280;64121;48.666;8.114;2023-04-15T10:36:30;99230.41;;;15.24;46.49
75538;BME280;64121;48.666;8.114;2023-04-15T10:38:55;99226.84;;;15.87;43.32
75538;BME280;64121;48.666;8.114;2023-04-15T10:41:22;99232.88;;;15.75;43.67
75538;BME280;64121;48.666;8.114;2023-04-15T10:43:49;99230.41;;;16.20;41.78
75538;BME280;64121;48.666;8.114;2023-04-15T10:46:17;99228.41;;;16.10;42.96
75538;BME280;64121;48.666;8.114;2023-04-15T10:48:48;99225.88;;;16.47;43.27
75538;BME280;64121;48.666;8.114;2023-04-15T10:51:13;99238.31;;;16.46;43.06
75538;BME280;64121;48.666;8.114;2023-04-15T10:53:40;99237.25;;;15.90;42.92
75538;BME280;64121;48.666;8.114;2023-04-15T10:56:06;99240.00;;;16.22;44.16
75538;BME280;64121;48.666;8.114;2023-04-15T10:58:40;99252.06;;;16.12;40.63
75538;BME280;64121;48.666;8.114;2023-04-15T11:01:06;99252.06;;;15.98;42.11
75538;BME280;64121;48.666;8.114;2023-04-15T11:03:41;99253.59;;;16.31;38.06
75538;BME280;64121;48.666;8.114;2023-04-15T11:06:08;99252.47;;;15.93;41.93
75538;BME280;64121;48.666;8.114;2023-04-15T11:08:54;99254.91;;;15.77;39.75
75538;BME280;64121;48.666;8.114;2023-04-15T11:11:20;99260.09;;;15.92;39.28
75538;BME280;64121;48.666;8.114;2023-04-15T11:13:48;99254.38;;;16.46;35.98
75538;BME280;64121;48.666;8.114;2023-04-15T11:16:14;99262.44;;;16.29;36.18
75538;BME280;64121;48.666;8.114;2023-04-15T11:18:39;99272.41;;;16.52;37.48
75538;BME280;64121;48.666;8.114;2023-04-15T11:21:06;99271.16;;;16.74;38.24
75538;BME280;64121;48.666;8.114;2023-04-15T11:23:37;99267.94;;;16.72;38.65
75538;BME280;64121;48.666;8.114;2023-04-15T11:26:04;99276.84;;;17.37;36.85
75538;BME280;64121;48.666;8.114;2023-04-15T11:28:31;99282.59;;;17.15;37.68
75538;BME280;64121;48.666;8.114;2023-04-15T11:30:57;99287.97;;;16.81;35.60
75538;BME280;64121;48.666;8.114;2023-04-15T11:33:23;99288.13;;;17.26;36.06
75538;BME280;64121;48.666;8.114;2023-04-15T11:35:49;99278.84;;;17.36;37.25
75538;BME280;64121;48.666;8.114;2023-04-15T11:38:15;99290.97;;;17.22;36.37
75538;BME280;64121;48.666;8.114;2023-04-15T11:40:42;99296.44;;;16.78;36.86
75538;BME280;64121;48.666;8.114;2023-04-15T11:43:09;99300.06;;;16.60;37.89
75538;BME280;64121;48.666;8.114;2023-04-15T11:45:36;99300.13;;;16.43;36.55
75538;BME280;64121;48.666;8.114;2023-04-15T11:48:05;99297.78;;;15.73;37.04
75538;BME280;64121;48.666;8.114;2023-04-15T11:50:31;99302.19;;;15.96;37.02
75538;BME280;64121;48.666;8.114;2023-04-15T11:52:57;99300.97;;;16.15;37.11
75538;BME280;64121;48.666;8.114;2023-04-15T11:55:23;99307.81;;;15.64;38.96
75538;BME280;64121;48.666;8.114;2023-04-15T11:58:05;99310.16;;;15.58;38.54
75538;BME280;64121;48.666;8.114;2023-04-15T12:00:30;99316.22;;;15.92;37.47
75538;BME280;64121;48.666;8.114;2023-04-15T12:03:10;99315.44;;;15.85;37.41
75538;BME280;64121;48.666;8.114;2023-04-15T12:05:36;99323.41;;;16.40;35.94
75538;BME280;64121;48.666;8.114;2023-04-15T12:08:01;99321.78;;;16.35;37.25
75538;BME280;64121;48.666;8.114;2023-04-15T12:10:26;99321.41;;;16.29;37.62
75538;BME280;64121;48.666;8.114;2023-04-15T12:12:53;99323.41;;;16.40;37.67
75538;BME280;64121;48.666;8.114;2023-04-15T12:15:21;99329.38;;;16.52;35.54
75538;BME280;64121;48.666;8.114;2023-04-15T12:17:46;99330.59;;;16.33;36.43
75538;BME280;64121;48.666;8.114;2023-04-15T12:20:11;99321.44;;;17.35;37.61
75538;BME280;64121;48.666;8.114;2023-04-15T12:22:37;99330.81;;;17.07;35.07
75538;BME280;64121;48.666;8.114;2023-04-15T12:25:03;99329.09;;;17.31;35.38
75538;BME280;64121;48.666;8.114;2023-04-15T12:27:30;99336.94;;;16.84;36.45
75538;BME280;64121;48.666;8.114;2023-04-15T12:30:04;99333.34;;;16.80;35.98
75538;BME280;64121;48.666;8.114;2023-04-15T12:32:34;99343.44;;;16.34;35.77
75538;BME280;64121;48.666;8.114;2023-04-15T12:34:59;99339.06;;;16.09;37.23
75538;BME280;64121;48.666;8.114;2023-04-15T12:37:24;99346.28;;;16.02;37.35
75538;BME280;64121;48.666;8.114;2023-04-15T12:39:50;99345.91;;;16.00;37.98
75538;BME280;64121;48.666;8.114;2023-04-15T12:42:16;99350.72;;;16.00;38.33
75538;BME280;64121;48.666;8.114;2023-04-15T12:44:41;99350.72;;;16.00;37.69
75538;BME280;64121;48.666;8.114;2023-04-15T12:47:09;99356.22;;;16.82;36.71
75538;BME280;64121;48.666;8.114;2023-04-15T12:49:34;99363.81;;;16.88;37.58
75538;BME280;64121;48.666;8.114;2023-04-15T12:52:01;99358.50;;;17.15;36.81
75538;BME280;64121;48.666;8.114;2023-04-15T12:54:27;99362.59;;;16.89;37.54
75538;BME280;64121;48.666;8.114;2023-04-15T12:56:53;99365.47;;;16.72;37.59
75538;BME280;64121;48.666;8.114;2023-04-15T12:59:19;99365.34;;;17.11;37.04
75538;BME280;64121;48.666;8.114;2023-04-15T13:01:45;99369.44;;;16.85;37.20